Jandaia, Brazil
Current Conditions -  °F | °C
As of 6:00 PM on Sunday 23 Nov 2014 (Local Time) from SBGO Reporting Station
Light Rain Light Rain  
Wind Chill: 72°   Ceiling: 700
Heat Index: 72°   Visibility: 6mi
Dew Point: 68°   Wind: 5mph
Humidity: 88%   Direction: 280°W
Pressure: 29.94"   Gusts: NA
Location:  17.05°S, 50.15°W
Report Text: SBGO 232000Z 28004KT 9999 -RA BKN007 OVC100 22/20 Q1014
Loading
Personal Weather Stations






























Interactive Weather Map New forecast layout! Learn more

10-Day Weather Forecast

Advertisements
Track Severe Weather on mobile